Terminal Aerodrome Forecast
Issued by NWS

Home | Current Version | Previous Version | Graphics & Text | Print | Product List | Glossary On
Versions: 1 2 3 4 5 6 7 8 9 10 11 12 13 14 15
000
FTUS43 KMPX 210500
TAFRNH
TAF
KRNH 210520Z 2106/2206 VRB02KT P6SM VCSH FEW060 BKN090
      TEMPO 2109/2112 5SM -SHRA BR
     FM211200 30008KT P6SM SCT060 BKN100
     FM211500 32013G20KT P6SM SCT120
     FM220100 33010KT P6SM SKC=

USA.gov is the U.S. government's official web portal to all federal, state and local government web resources and services.